Terminal Aerodrome Forecast
Issued by NWS

Home | Current Version | Previous Version | Text Only | Print | Product List | Glossary On
Versions: 1 2 3 4 5 6 7 8 9 10 11 12
000
FTUS43 KICT 040520
TAFRSL
TAF
KRSL 040520Z 0406/0506 16011KT P6SM SCT070 BKN120
     FM041200 20011KT P6SM VCTS SCT050 BKN080CB
     FM041900 18012KT P6SM SCT025 BKN080
     FM050200 15010KT P6SM VCTS BKN060CB=

USA.gov is the U.S. government's official web portal to all federal, state and local government web resources and services.